KBGM/BGM METAR and TAF weather

Enter ICAO airport designator
Station Type Date Time Source
KBGM METAR 2021/02/25 01:53 UTC NOAA

KBGM 250153Z AUTO 24012KT 10SM OVC090 07/M02 A2966 RMK AO2 SLP053 T00721017


Station Type Date Time Source
KBGM Decoded METAR 2021/02/25 01:53 UTC NOAA

BINGHAMTON REGIONAL AIRPORT, NY, United States (KBGM) 42-12N 75-59W 492M
Feb 24, 2021 - 08:53 PM EST / 2021.02.25 0153 UTC
Wind: from the WSW (240 degrees) at 14 MPH (12 KT):0
Visibility: 10 mile(s):0
Sky conditions: overcast
Temperature: 45.0 F (7.2 C)
Dew Point: 28.9 F (-1.7 C)
Relative Humidity: 53%
Pressure (altimeter): 29.66 in. Hg (1004 hPa)
ob: KBGM 250153Z AUTO 24012KT 10SM OVC090 07/M02 A2966 RMK AO2 SLP053 T00721017
cycle: 2

Station Type Date Time Source
KBGM TAF 2021/02/24 22:48 UTC NOAA

TAF
AMD KBGM 242146Z 2422/2518 20011G22KT 6SM -SHRA SCT035 BKN070 WS020/22045KT
FM250000 25010G20KT 4SM -SHRA BR OVC015 WS020/23050KT
FM250300 27013G21KT P6SM OVC025
FM250900 30012G21KT P6SM BKN015
FM251500 31012G20KT P6SM BKN021

Example: see airport list